This is the latest recevied weather packets stored in our database for station/object DH5WR-10. If no packets are shown the sender has not sent any weather packets the latest 10 day(s).
| Time | Temp. | Humidity | Pressure | Rain* | Wind** | Luminosity | Snow |
|---|---|---|---|---|---|---|---|
| 1777373537 | 17.78° C | 31% | 1018.5 hPa | - | - | - | - |
| 1777372637 | 17.78° C | 34% | 1018.4 hPa | - | - | - | - |
| 1777371737 | 17.78° C | 34% | 1018.4 hPa | - | - | - | - |
| 1777370836 | 16.67° C | 35% | 1018.5 hPa | - | - | - | - |
| 1777369936 | 16.67° C | 36% | 1018.6 hPa | - | - | - | - |
| 1777369036 | 16.11° C | 38% | 1018.6 hPa | - | - | - | - |
| 1777368136 | 15.56° C | 38% | 1018.6 hPa | - | - | - | - |
| 1777367236 | 15.56° C | 39% | 1018.6 hPa | - | - | - | - |
| 1777366336 | 15.56° C | 40% | 1018.7 hPa | - | - | - | - |
| 1777365436 | 14.44° C | 39% | 1018.7 hPa | - | - | - | - |
| 1777364535 | 14.44° C | 41% | 1018.6 hPa | - | - | - | - |
| 1777363635 | 13.33° C | 43% | 1018.5 hPa | - | - | - | - |
| 1777362735 | 13.89° C | 41% | 1018.6 hPa | - | - | - | - |
| 1777361835 | 12.78° C | 45% | 1018.6 hPa | - | - | - | - |
| 1777360935 | 11.67° C | 47% | 1018.6 hPa | - | - | - | - |
| 1777360035 | 11.11° C | 50% | 1018.6 hPa | - | - | - | - |
| 1777359134 | 10.56° C | 50% | 1018.7 hPa | - | - | - | - |
| 1777358233 | 9.44° C | 55% | 1018.7 hPa | - | - | - | - |
| 1777357333 | 8.33° C | 59% | 1018.5 hPa | - | - | - | - |
| 1777356433 | 7.78° C | 60% | 1018.4 hPa | - | - | - | - |
| 1777355533 | 7.22° C | 62% | 1018.3 hPa | - | - | - | - |
| 1777354632 | 7.22° C | 62% | 1018.3 hPa | - | - | - | - |
| 1777353745 | 6.67° C | 63% | 1018.2 hPa | - | - | - | - |
| 1777352845 | 6.67° C | 63% | 1018.2 hPa | - | - | - | - |
| 1777351945 | 6.11° C | 64% | 1018.1 hPa | - | - | - | - |
* Rain since midnight (hover to see other rain measurements)
** Current wind speed in m/s (hover to see current wind gust speed)